createdAt,value
2019-03-10T00:01:40.848Z,92.20
2019-03-10T00:04:26.239Z,92.40
2019-03-10T00:10:28.555Z,92.70
2019-03-10T00:13:35.786Z,92.80
2019-03-10T00:16:11.478Z,92.90
2019-03-10T00:18:55.969Z,93.00
2019-03-10T00:21:40.261Z,93.10
2019-03-10T00:24:27.059Z,93.50
2019-03-10T00:27:13.817Z,93.50
2019-03-10T00:29:58.527Z,93.40
2019-03-10T00:32:59.927Z,93.40
2019-03-10T00:38:50.792Z,93.60
2019-03-10T00:41:39.065Z,93.70
2019-03-10T00:44:22.971Z,93.70
2019-03-10T00:47:07.953Z,93.60
2019-03-10T00:49:52.583Z,93.60
2019-03-10T00:52:53.047Z,93.70
2019-03-10T00:55:37.596Z,93.80
2019-03-10T01:01:30.973Z,94.10
2019-03-10T01:04:20.607Z,94.20
2019-03-10T01:07:10.278Z,94.20
2019-03-10T01:09:54.806Z,94.30
2019-03-10T01:12:38.696Z,94.30
2019-03-10T01:18:15.729Z,94.70
2019-03-10T01:21:00.080Z,94.70
2019-03-10T01:23:43.182Z,94.90
2019-03-10T01:26:32.296Z,95.00
2019-03-10T01:29:17.978Z,95.20
2019-03-10T01:32:02.733Z,95.00
2019-03-10T01:34:47.371Z,95.00
2019-03-10T01:40:18.527Z,94.90
2019-03-10T01:45:56.728Z,94.90
2019-03-10T01:48:41.957Z,95.00
2019-03-10T01:51:26.203Z,94.90
2019-03-10T01:54:10.514Z,94.90
2019-03-10T01:56:57.080Z,95.00
2019-03-10T01:59:41.105Z,94.90
2019-03-10T02:02:26.102Z,94.90
2019-03-10T02:05:09.216Z,95.10
2019-03-10T02:07:52.934Z,95.10
2019-03-10T02:10:37.064Z,95.00
2019-03-10T02:13:20.146Z,94.80
2019-03-10T02:16:05.388Z,95.10
2019-03-10T02:18:49.388Z,95.10
2019-03-10T02:21:33.685Z,95.50
2019-03-10T02:24:23.750Z,95.90
2019-03-10T02:27:01.978Z,96.40
2019-03-10T02:29:45.479Z,96.70
2019-03-10T02:32:30.716Z,97.20
2019-03-10T02:35:15.155Z,97.80
2019-03-10T02:37:58.581Z,98.00
2019-03-10T02:40:31.407Z,98.70
2019-03-10T02:43:22.196Z,98.90
2019-03-10T02:46:05.921Z,99.00
2019-03-10T02:48:55.511Z,99.40
2019-03-10T02:51:41.386Z,99.70
2019-03-10T02:54:33.104Z,99.90
2019-03-10T02:57:16.641Z,99.90
2019-03-10T03:00:03.429Z,99.90
2019-03-10T03:02:50.838Z,99.90
2019-03-10T03:05:36.153Z,99.90
2019-03-10T03:08:23.822Z,99.90
2019-03-10T03:11:09.175Z,99.90
2019-03-10T03:13:52.495Z,99.90
2019-03-10T03:16:35.442Z,99.90
2019-03-10T03:22:03.606Z,99.90
2019-03-10T03:24:47.754Z,99.90
2019-03-10T03:27:36.628Z,99.90
2019-03-10T03:30:23.033Z,99.90
2019-03-10T03:33:06.707Z,99.90
2019-03-10T03:36:16.746Z,99.90
2019-03-10T03:41:37.919Z,99.90
2019-03-10T03:47:52.984Z,99.90
2019-03-10T03:50:42.058Z,99.90
2019-03-10T03:56:28.107Z,99.90
2019-03-10T03:59:13.158Z,99.90
2019-03-10T04:05:08.225Z,99.90
2019-03-10T04:07:55.905Z,99.90
2019-03-10T04:16:22.830Z,99.90
2019-03-10T04:19:09.273Z,99.90
2019-03-10T04:21:57.618Z,99.90
2019-03-10T04:24:41.313Z,99.90
2019-03-10T04:27:29.613Z,99.90
2019-03-10T04:30:13.858Z,99.90
2019-03-10T04:32:57.479Z,99.90
2019-03-10T04:35:46.464Z,99.90
2019-03-10T04:38:30.476Z,99.90
2019-03-10T04:41:14.882Z,99.90
2019-03-10T04:49:45.437Z,99.90
2019-03-10T04:52:29.302Z,99.90
2019-03-10T04:55:30.822Z,99.90
2019-03-10T04:58:19.283Z,99.90
2019-03-10T05:01:02.123Z,99.90
2019-03-10T05:03:47.632Z,99.90
2019-03-10T05:06:31.683Z,99.90
2019-03-10T05:09:15.374Z,99.90
2019-03-10T05:11:58.947Z,99.90
2019-03-10T05:14:44.477Z,99.90
2019-03-10T05:20:07.889Z,99.90
2019-03-10T05:22:56.936Z,99.90
2019-03-10T05:25:45.917Z,99.90
2019-03-10T05:28:31.734Z,99.90
2019-03-10T05:31:15.552Z,99.90
2019-03-10T05:34:05.020Z,99.90
2019-03-10T05:36:48.423Z,99.90
2019-03-10T05:39:32.965Z,99.90
2019-03-10T05:42:22.099Z,99.90
2019-03-10T05:45:06.093Z,99.90
2019-03-10T05:50:37.124Z,99.90
2019-03-10T05:53:22.803Z,99.90
2019-03-10T05:56:07.793Z,99.90
2019-03-10T05:58:51.818Z,99.90
2019-03-10T06:01:35.592Z,99.90
2019-03-10T06:04:22.493Z,99.90
2019-03-10T06:07:05.885Z,99.90
2019-03-10T06:09:49.714Z,99.90
2019-03-10T06:12:33.988Z,99.90
2019-03-10T06:15:18.103Z,99.90
2019-03-10T06:18:13.622Z,99.90
2019-03-10T06:21:14.507Z,99.90
2019-03-10T06:24:03.828Z,99.90
2019-03-10T06:26:50.896Z,99.90
2019-03-10T06:29:35.463Z,99.90
2019-03-10T06:32:18.980Z,99.90
2019-03-10T06:35:02.125Z,99.90
2019-03-10T06:37:48.272Z,99.90
2019-03-10T06:40:33.819Z,99.90
2019-03-10T06:43:17.806Z,99.90
2019-03-10T06:46:03.734Z,99.90
2019-03-10T06:48:52.660Z,99.90
2019-03-10T06:51:39.387Z,99.90
2019-03-10T06:54:27.215Z,99.90
2019-03-10T06:57:16.274Z,99.90
2019-03-10T07:00:09.753Z,99.90
2019-03-10T07:02:58.163Z,99.90
2019-03-10T07:05:43.294Z,99.90
2019-03-10T07:08:28.502Z,99.90
2019-03-10T07:11:12.792Z,99.90
2019-03-10T07:13:56.960Z,99.90
2019-03-10T07:16:41.363Z,99.90
2019-03-10T07:19:29.423Z,99.90
2019-03-10T07:22:17.518Z,99.90
2019-03-10T07:25:01.694Z,99.90
2019-03-10T07:31:02.591Z,99.90
2019-03-10T07:36:43.921Z,99.90
2019-03-10T07:42:52.688Z,99.90
2019-03-10T07:45:41.952Z,99.90
2019-03-10T07:48:37.948Z,99.90
2019-03-10T07:51:29.063Z,99.90
2019-03-10T07:54:40.769Z,99.90
2019-03-10T08:03:51.649Z,99.90
2019-03-10T08:06:43.497Z,99.90
2019-03-10T08:09:37.736Z,99.90
2019-03-10T08:12:30.001Z,99.90
2019-03-10T08:18:45.035Z,99.90
2019-03-10T08:21:56.673Z,99.90
2019-03-10T08:24:41.410Z,99.90
2019-03-10T08:27:37.687Z,99.90
2019-03-10T08:49:09.708Z,99.90
2019-03-10T08:52:18.359Z,99.90
2019-03-10T08:55:28.336Z,99.90
2019-03-10T08:58:27.404Z,99.90
2019-03-10T09:09:52.740Z,99.90
2019-03-10T09:12:53.133Z,99.90
2019-03-10T09:15:52.149Z,99.90
2019-03-10T09:19:02.735Z,99.90
2019-03-10T09:25:12.075Z,99.90
2019-03-10T09:28:08.323Z,99.90
2019-03-10T09:34:21.718Z,99.90
2019-03-10T09:37:32.531Z,99.90
2019-03-10T09:40:15.603Z,99.90
2019-03-10T09:43:13.206Z,99.90
2019-03-10T09:45:56.633Z,99.90
2019-03-10T09:49:02.504Z,99.90
2019-03-10T09:51:51.355Z,99.90
2019-03-10T09:57:47.178Z,99.90
2019-03-10T10:06:35.300Z,99.90
2019-03-10T10:09:23.808Z,99.90
2019-03-10T10:15:40.419Z,99.90
2019-03-10T10:21:36.557Z,99.90
2019-03-10T10:27:29.490Z,99.90
2019-03-10T10:36:42.774Z,99.90
2019-03-10T10:43:13.736Z,96.60
2019-03-10T10:46:15.817Z,93.30
2019-03-10T10:49:02.162Z,93.30
2019-03-10T10:54:59.732Z,92.70
2019-03-10T11:07:46.879Z,88.70
2019-03-10T11:10:33.217Z,88.80
2019-03-10T11:13:21.999Z,90.30
2019-03-10T11:19:16.943Z,90.00
2019-03-10T11:22:08.604Z,92.80
2019-03-10T11:25:10.220Z,95.60
2019-03-10T11:28:00.290Z,97.70
2019-03-10T11:33:49.392Z,97.80
2019-03-10T11:36:38.211Z,97.10
2019-03-10T11:39:43.263Z,95.30
2019-03-10T11:42:31.840Z,92.90
2019-03-10T11:52:16.650Z,94.20
2019-03-10T11:55:06.760Z,92.90
2019-03-10T11:58:12.598Z,93.00
2019-03-10T12:06:35.169Z,90.20
2019-03-10T12:09:25.759Z,88.30
2019-03-10T12:12:38.202Z,87.40
2019-03-10T12:15:31.223Z,88.30
2019-03-10T12:18:15.168Z,90.00
2019-03-10T12:24:10.446Z,89.60
2019-03-10T12:26:42.954Z,88.50
2019-03-10T12:35:34.702Z,90.20
2019-03-10T12:41:14.041Z,90.30
2019-03-10T12:53:14.303Z,99.90
2019-03-10T12:55:59.387Z,99.90
2019-03-10T12:58:43.957Z,99.90
2019-03-10T13:04:32.676Z,99.90
2019-03-10T13:07:22.714Z,99.90
2019-03-10T13:16:43.333Z,99.90
2019-03-10T13:22:30.143Z,99.40
2019-03-10T13:25:15.795Z,99.10
2019-03-10T13:30:58.351Z,99.70
2019-03-10T13:33:44.225Z,98.70
2019-03-10T13:45:45.584Z,97.00
2019-03-10T13:48:29.860Z,95.50
2019-03-10T13:54:22.383Z,90.40
2019-03-10T13:57:06.783Z,87.60
2019-03-10T14:02:51.229Z,88.30
2019-03-10T14:11:36.832Z,86.70
2019-03-10T14:17:19.325Z,86.10
2019-03-10T14:25:56.108Z,86.60
2019-03-10T14:28:42.267Z,86.50
2019-03-10T14:34:15.281Z,87.30
2019-03-10T14:36:59.409Z,92.80
2019-03-10T14:39:42.774Z,93.10
2019-03-10T14:42:29.014Z,91.80
2019-03-10T14:45:13.073Z,91.70
2019-03-10T14:48:00.754Z,89.20
2019-03-10T14:50:46.138Z,88.20
2019-03-10T14:53:32.177Z,87.20
2019-03-10T14:56:21.753Z,85.60
2019-03-10T15:02:07.818Z,85.00
2019-03-10T15:04:55.902Z,84.80
2019-03-10T15:07:40.485Z,84.80
2019-03-10T15:10:25.209Z,84.50
2019-03-10T15:13:11.264Z,85.00
2019-03-10T15:16:02.416Z,85.00
2019-03-10T15:18:48.904Z,85.00
2019-03-10T15:24:17.877Z,84.80
2019-03-10T15:27:04.447Z,84.50
2019-03-10T15:29:51.279Z,84.80
2019-03-10T15:35:25.939Z,84.50
2019-03-10T15:38:14.535Z,84.50
2019-03-10T15:44:05.392Z,84.20
2019-03-10T15:46:49.191Z,84.80
2019-03-10T15:49:23.804Z,85.50
2019-03-10T15:52:16.367Z,86.00
2019-03-10T15:57:51.078Z,88.40
2019-03-10T16:00:34.855Z,88.40
2019-03-10T16:03:18.219Z,88.50
2019-03-10T16:06:02.966Z,87.20
2019-03-10T16:08:47.349Z,88.00
2019-03-10T16:11:31.686Z,88.70
2019-03-10T16:14:16.748Z,88.80
2019-03-10T16:17:03.267Z,89.80
2019-03-10T16:19:46.661Z,90.30
2019-03-10T16:22:31.288Z,91.10
2019-03-10T16:25:16.749Z,92.50
2019-03-10T16:28:03.418Z,94.60
2019-03-10T16:36:30.567Z,95.70
2019-03-10T16:39:16.766Z,95.50
2019-03-10T16:42:08.448Z,95.80
2019-03-10T16:47:45.395Z,95.00
2019-03-10T16:50:30.214Z,93.50
2019-03-10T16:53:13.742Z,93.10
2019-03-10T16:56:02.659Z,93.60
2019-03-10T16:58:43.791Z,93.80
2019-03-10T17:01:32.467Z,93.90
2019-03-10T17:04:16.904Z,94.50
2019-03-10T17:06:58.609Z,95.30
2019-03-10T17:09:48.037Z,95.70
2019-03-10T17:12:36.301Z,96.50
2019-03-10T17:18:04.980Z,97.90
2019-03-10T17:20:49.886Z,98.60
2019-03-10T17:29:23.191Z,99.50
2019-03-10T17:32:16.347Z,99.90
2019-03-10T17:35:02.678Z,99.90
2019-03-10T17:37:48.607Z,99.90
2019-03-10T17:52:14.339Z,99.90
2019-03-10T17:55:11.647Z,99.90
2019-03-10T17:57:57.009Z,99.80
2019-03-10T18:07:02.469Z,99.00
2019-03-10T18:16:15.348Z,98.40
2019-03-10T18:19:01.815Z,97.30
2019-03-10T18:21:48.799Z,95.60
2019-03-10T18:27:44.336Z,95.30
2019-03-10T18:31:00.754Z,95.40
2019-03-10T18:33:49.954Z,94.90
2019-03-10T18:39:43.019Z,94.30
2019-03-10T18:46:02.604Z,94.20
2019-03-10T18:48:48.798Z,92.90
2019-03-10T18:51:42.571Z,92.80
2019-03-10T18:54:27.485Z,91.80
2019-03-10T18:57:15.614Z,92.60
2019-03-10T19:02:52.523Z,92.80
2019-03-10T19:05:42.314Z,92.90
2019-03-10T19:08:31.603Z,92.80
2019-03-10T19:11:18.222Z,93.40
2019-03-10T19:13:52.806Z,93.50
2019-03-10T19:16:38.041Z,93.60
2019-03-10T19:22:05.352Z,93.60
2019-03-10T19:24:40.685Z,94.00
2019-03-10T19:27:30.513Z,94.40
2019-03-10T19:30:18.341Z,94.60
2019-03-10T19:32:54.076Z,94.90
2019-03-10T19:35:41.103Z,94.40
2019-03-10T19:47:51.346Z,94.00
2019-03-10T19:50:40.645Z,93.80
2019-03-10T19:53:30.729Z,93.50
2019-03-10T19:56:19.503Z,93.40
2019-03-10T19:59:10.793Z,93.30
2019-03-10T20:01:44.181Z,95.00
2019-03-10T20:04:27.768Z,96.20
2019-03-10T20:07:13.799Z,98.40
2019-03-10T20:09:47.149Z,99.20
2019-03-10T20:15:31.041Z,99.90
2019-03-10T20:27:23.839Z,99.90
2019-03-10T20:42:11.990Z,99.90
2019-03-10T20:54:43.458Z,99.90
2019-03-10T20:57:45.354Z,99.90
2019-03-10T21:03:20.814Z,99.90
2019-03-10T21:09:06.822Z,99.90
2019-03-10T21:18:20.189Z,99.90
2019-03-10T21:24:39.169Z,99.90
2019-03-10T21:27:26.363Z,99.90
2019-03-10T21:30:12.614Z,99.90
2019-03-10T21:32:46.416Z,99.90
2019-03-10T21:41:32.964Z,99.90
2019-03-10T21:48:04.014Z,99.90
2019-03-10T21:59:50.141Z,99.90
2019-03-10T22:02:44.017Z,99.90
2019-03-10T22:05:30.214Z,99.90
2019-03-10T22:08:16.956Z,99.90
2019-03-10T22:11:02.438Z,99.90
2019-03-10T22:13:49.899Z,99.90
2019-03-10T22:16:36.165Z,99.90
2019-03-10T22:19:23.227Z,99.90
2019-03-10T22:22:08.778Z,99.90
2019-03-10T22:24:54.089Z,99.90
2019-03-10T22:27:45.920Z,99.90
2019-03-10T22:30:52.591Z,99.90
2019-03-10T22:36:48.271Z,99.90
2019-03-10T22:39:33.555Z,99.90
2019-03-10T22:45:14.063Z,99.90
2019-03-10T22:47:58.313Z,99.90
2019-03-10T22:50:47.743Z,99.90
2019-03-10T22:53:33.827Z,99.90
2019-03-10T22:59:02.346Z,99.90
2019-03-10T23:01:48.380Z,99.90
2019-03-10T23:04:34.679Z,99.90
2019-03-10T23:07:20.907Z,99.90
2019-03-10T23:10:07.245Z,99.90
2019-03-10T23:13:09.445Z,99.90
2019-03-10T23:18:49.780Z,98.80
2019-03-10T23:21:37.998Z,98.00
2019-03-10T23:27:07.703Z,96.60
2019-03-10T23:29:56.771Z,95.30
2019-03-10T23:35:44.736Z,94.50
2019-03-10T23:38:28.864Z,95.10
2019-03-10T23:41:13.273Z,95.10
2019-03-10T23:46:47.264Z,95.40
2019-03-10T23:49:36.157Z,95.90
2019-03-10T23:52:23.531Z,95.30
2019-03-10T23:58:03.708Z,95.30
